Time;durP1;ratioP1;P1;durP2;ratioP2;P2;SDS_P1;SDS_P2;PMS_P1;PMS_P2;Temp;Humidity;BMP_temperature;BMP_pressure;BME280_temperature;BME280_humidity;BME280_pressure;Samples;Min_cycle;Max_cycle;Signal;HPM_P1;HPM_P2
2023/03/19 00:01:46;;;;;;;21.00;12.93;;;10.70;99.90;;;;;;5083380;28;20056;-71
2023/03/19 00:04:12;;;;;;;18.00;12.05;;;10.70;99.90;;;;;;5083302;28;20037;-71
2023/03/19 00:06:38;;;;;;;18.63;12.10;;;10.70;99.90;;;;;;5083291;28;20020;-73
2023/03/19 00:09:04;;;;;;;19.23;12.02;;;10.60;99.90;;;;;;5081955;28;20033;-72
2023/03/19 00:11:31;;;;;;;17.50;11.35;;;10.60;99.90;;;;;;5082678;28;20031;-71
2023/03/19 00:13:56;;;;;;;16.73;11.10;;;10.60;99.90;;;;;;5082089;28;20029;-72
2023/03/19 00:16:22;;;;;;;17.42;11.50;;;10.50;99.90;;;;;;5082853;28;20438;-70
2023/03/19 00:18:48;;;;;;;20.33;12.43;;;10.50;99.90;;;;;;5083405;28;20035;-71
2023/03/19 00:21:13;;;;;;;19.65;12.15;;;10.50;99.90;;;;;;5083039;28;20752;-72
2023/03/19 00:23:39;;;;;;;19.42;11.75;;;10.50;99.90;;;;;;5082761;28;20028;-72
2023/03/19 00:26:05;;;;;;;19.67;13.00;;;10.50;99.90;;;;;;5083173;28;20028;-74
2023/03/19 00:28:31;;;;;;;21.60;12.45;;;10.50;99.90;;;;;;5083024;28;20020;-74
2023/03/19 00:30:57;;;;;;;19.42;12.48;;;10.50;99.90;;;;;;5081651;28;20028;-73
2023/03/19 00:33:22;;;;;;;20.45;12.85;;;10.50;99.90;;;;;;5081005;28;20046;-72
2023/03/19 00:35:48;;;;;;;20.23;12.30;;;10.50;99.90;;;;;;5081124;28;20019;-71
2023/03/19 00:38:13;;;;;;;19.27;11.82;;;10.40;99.90;;;;;;5082438;28;20039;-71
2023/03/19 00:40:40;;;;;;;20.05;11.90;;;10.40;99.90;;;;;;5080957;28;20040;-71
2023/03/19 00:43:05;;;;;;;20.27;11.93;;;10.40;99.90;;;;;;5082648;28;20044;-72
2023/03/19 00:45:31;;;;;;;17.75;12.52;;;10.30;99.90;;;;;;5082675;28;20035;-71
2023/03/19 00:47:57;;;;;;;18.90;12.48;;;10.30;99.90;;;;;;5080977;28;20017;-71
2023/03/19 00:50:24;;;;;;;22.73;13.27;;;10.20;99.90;;;;;;5081162;28;20048;-70
2023/03/19 00:52:51;;;;;;;18.95;12.52;;;10.20;99.90;;;;;;5081571;28;20552;-72
2023/03/19 00:55:17;;;;;;;21.20;13.40;;;10.20;99.90;;;;;;5082534;28;20031;-71
2023/03/19 00:57:42;;;;;;;17.92;12.20;;;10.20;99.90;;;;;;5081772;28;20543;-71
2023/03/19 01:00:09;;;;;;;19.38;12.82;;;10.10;99.90;;;;;;5080997;28;20020;-71
2023/03/19 01:02:35;;;;;;;19.85;12.95;;;10.10;99.90;;;;;;5082204;28;20028;-71
2023/03/19 01:05:01;;;;;;;18.02;12.85;;;10.00;99.90;;;;;;5079664;28;20028;-73
2023/03/19 01:07:26;;;;;;;21.52;13.50;;;10.00;99.90;;;;;;5081935;28;20025;-71
2023/03/19 01:09:52;;;;;;;21.52;14.05;;;9.90;99.90;;;;;;5080551;28;20028;-72
2023/03/19 01:12:18;;;;;;;20.00;13.32;;;9.90;99.90;;;;;;5081869;28;20181;-71
2023/03/19 01:14:44;;;;;;;21.77;12.60;;;9.90;99.90;;;;;;5078558;28;20035;-71
2023/03/19 01:17:09;;;;;;;18.77;12.55;;;9.90;99.90;;;;;;5080212;28;20072;-72
2023/03/19 01:19:35;;;;;;;22.02;13.25;;;9.90;99.90;;;;;;5081681;28;20021;-71
2023/03/19 01:22:03;;;;;;;21.98;13.57;;;9.80;99.90;;;;;;5081870;28;20058;-70
2023/03/19 01:24:30;;;;;;;21.02;13.32;;;9.90;99.90;;;;;;5081494;28;20020;-71
2023/03/19 01:26:56;;;;;;;19.88;13.65;;;9.80;99.90;;;;;;5081715;28;20497;-71
2023/03/19 01:29:21;;;;;;;21.25;14.07;;;9.70;99.90;;;;;;5081757;28;20114;-70
2023/03/19 01:31:47;;;;;;;22.67;14.50;;;9.70;99.90;;;;;;5082042;28;20028;-71
2023/03/19 01:34:13;;;;;;;25.42;15.38;;;9.70;99.90;;;;;;5081606;28;20051;-70
2023/03/19 01:36:38;;;;;;;24.23;13.85;;;9.60;99.90;;;;;;5081823;28;20025;-70
2023/03/19 01:39:04;;;;;;;24.17;14.50;;;9.60;99.90;;;;;;5080532;28;20020;-72
2023/03/19 01:41:30;;;;;;;23.58;15.20;;;9.60;99.90;;;;;;5080109;28;20057;-72
2023/03/19 01:43:55;;;;;;;23.98;14.82;;;9.50;99.90;;;;;;5082020;28;20034;-72
2023/03/19 01:46:33;;;;;;;30.15;16.90;;;9.50;99.90;;;;;;5080248;28;20028;-70
2023/03/19 01:49:08;;;;;;;32.75;18.08;;;9.50;99.90;;;;;;5081496;28;20527;-72
2023/03/19 01:51:44;;;;;;;26.95;17.00;;;9.50;99.90;;;;;;5079782;28;20047;-71
2023/03/19 01:54:15;;;;;;;24.95;15.55;;;9.60;99.90;;;;;;5080988;28;20025;-72
2023/03/19 01:56:43;;;;;;;27.20;16.85;;;9.60;99.90;;;;;;5081712;28;20474;-70
2023/03/19 01:59:20;;;;;;;28.83;16.00;;;9.60;99.90;;;;;;5081139;28;20024;-72
2023/03/19 02:01:57;;;;;;;27.42;16.55;;;9.60;99.90;;;;;;5079760;28;20092;-72
2023/03/19 02:04:26;;;;;;;27.20;16.90;;;9.70;99.90;;;;;;5079926;28;20035;-70
2023/03/19 02:06:54;;;;;;;26.42;15.88;;;9.70;99.90;;;;;;5081127;28;20381;-73
2023/03/19 02:09:20;;;;;;;27.15;17.02;;;9.80;99.90;;;;;;5081027;28;20025;-72
2023/03/19 02:11:46;;;;;;;25.95;15.98;;;9.80;99.90;;;;;;5081039;28;20058;-71
2023/03/19 02:14:12;;;;;;;23.95;15.43;;;9.80;99.90;;;;;;5080778;28;20028;-72
2023/03/19 02:16:38;;;;;;;25.98;16.58;;;9.80;99.90;;;;;;5081304;28;20028;-71
2023/03/19 02:19:06;;;;;;;26.13;16.45;;;9.90;99.90;;;;;;5081280;28;20025;-71
2023/03/19 02:21:32;;;;;;;28.35;17.08;;;9.90;99.90;;;;;;5081149;28;20017;-70
2023/03/19 02:24:08;;;;;;;25.33;16.48;;;10.00;99.90;;;;;;5080099;28;20031;-71
2023/03/19 02:26:35;;;;;;;28.27;16.55;;;10.00;99.90;;;;;;5084922;28;20024;-70
2023/03/19 02:29:00;;;;;;;23.20;15.27;;;10.00;99.90;;;;;;5083612;28;20020;-72
2023/03/19 02:31:26;;;;;;;30.67;17.48;;;10.00;99.90;;;;;;5085418;28;20110;-70
2023/03/19 02:34:05;;;;;;;26.65;16.55;;;10.10;99.90;;;;;;5084596;28;20017;-71
2023/03/19 02:36:43;;;;;;;22.55;14.73;;;10.10;99.90;;;;;;5084808;28;20039;-70
2023/03/19 02:39:18;;;;;;;22.45;15.77;;;10.10;99.90;;;;;;5084537;28;20136;-70
2023/03/19 02:41:45;;;;;;;29.67;18.50;;;10.00;99.90;;;;;;5084090;28;20048;-70
2023/03/19 02:44:11;;;;;;;27.63;17.42;;;10.00;99.90;;;;;;5083019;28;20088;-70
2023/03/19 02:46:37;;;;;;;29.00;17.83;;;9.90;99.90;;;;;;5084763;28;20036;-70
2023/03/19 02:49:04;;;;;;;27.50;18.02;;;10.00;99.90;;;;;;5084832;28;20043;-72
2023/03/19 02:51:30;;;;;;;29.15;17.33;;;9.90;99.90;;;;;;5084530;28;20025;-70
2023/03/19 02:53:55;;;;;;;25.50;17.02;;;9.90;99.90;;;;;;5083640;28;20740;-72
2023/03/19 02:56:21;;;;;;;27.80;17.60;;;9.90;99.90;;;;;;5084592;28;20043;-71
2023/03/19 02:58:47;;;;;;;27.95;17.55;;;9.90;99.90;;;;;;5084584;28;20032;-70
2023/03/19 03:01:12;;;;;;;27.77;17.02;;;9.90;99.90;;;;;;5084610;28;20021;-72
2023/03/19 03:03:38;;;;;;;26.98;16.92;;;9.90;99.90;;;;;;5082831;28;20036;-70
2023/03/19 03:06:04;;;;;;;28.40;17.60;;;10.00;99.90;;;;;;5084599;28;20067;-72
2023/03/19 03:08:29;;;;;;;25.50;16.00;;;9.90;99.90;;;;;;5084405;28;20024;-74
2023/03/19 03:10:55;;;;;;;23.70;16.15;;;9.90;99.90;;;;;;5084398;28;20549;-71
2023/03/19 03:13:21;;;;;;;25.65;16.60;;;9.90;99.90;;;;;;5084029;28;20503;-72
2023/03/19 03:15:46;;;;;;;25.13;17.02;;;9.80;99.90;;;;;;5084168;28;20020;-72
2023/03/19 03:18:12;;;;;;;25.58;16.67;;;9.80;99.90;;;;;;5084260;28;20029;-70
2023/03/19 03:20:37;;;;;;;25.02;15.85;;;9.80;99.90;;;;;;5084205;28;20051;-70
2023/03/19 03:23:03;;;;;;;24.05;15.85;;;9.80;99.90;;;;;;5084519;28;20046;-70
2023/03/19 03:25:29;;;;;;;25.40;16.15;;;9.90;99.90;;;;;;5084411;28;20036;-73
2023/03/19 03:27:55;;;;;;;20.98;14.30;;;9.80;99.90;;;;;;5084185;28;20032;-71
2023/03/19 03:30:20;;;;;;;25.33;15.05;;;9.90;99.90;;;;;;5084153;28;20040;-72
2023/03/19 03:32:46;;;;;;;25.95;15.80;;;9.80;99.90;;;;;;5082500;28;20025;-71
2023/03/19 03:35:12;;;;;;;22.65;15.65;;;9.90;99.90;;;;;;5082257;28;20024;-72
2023/03/19 03:37:38;;;;;;;22.63;15.00;;;9.90;99.90;;;;;;5083535;28;20020;-70
2023/03/19 03:40:07;;;;;;;24.88;15.40;;;9.80;99.90;;;;;;5082415;28;21117;-71
2023/03/19 03:42:35;;;;;;;23.40;15.20;;;9.80;99.90;;;;;;5081138;28;20090;-70
2023/03/19 03:45:01;;;;;;;24.63;15.38;;;9.80;99.90;;;;;;5082216;28;20466;-72
2023/03/19 03:47:26;;;;;;;23.45;15.13;;;9.80;99.90;;;;;;5084074;28;20044;-71
2023/03/19 03:49:52;;;;;;;25.55;14.88;;;9.80;99.90;;;;;;5083423;28;20092;-71
2023/03/19 03:52:17;;;;;;;23.90;15.52;;;9.80;99.90;;;;;;5082147;28;20017;-72
2023/03/19 03:54:43;;;;;;;24.17;15.63;;;9.80;99.90;;;;;;5082078;28;20033;-71
2023/03/19 03:57:08;;;;;;;25.80;15.85;;;9.80;99.90;;;;;;5082144;28;20082;-71
2023/03/19 03:59:34;;;;;;;24.88;15.55;;;9.70;99.90;;;;;;5082844;28;20025;-71
2023/03/19 04:01:59;;;;;;;25.98;15.90;;;9.80;99.90;;;;;;5083463;28;20068;-71
2023/03/19 04:04:25;;;;;;;25.38;15.50;;;9.70;99.90;;;;;;5083428;28;20362;-72
2023/03/19 04:06:51;;;;;;;26.00;15.90;;;9.70;99.90;;;;;;5083125;28;20043;-72
2023/03/19 04:09:16;;;;;;;23.60;15.23;;;9.70;99.90;;;;;;5083267;28;20032;-72
2023/03/19 04:11:42;;;;;;;27.30;15.90;;;9.70;99.90;;;;;;5081943;28;20024;-72
2023/03/19 04:14:08;;;;;;;25.25;15.45;;;9.60;99.90;;;;;;5083042;28;20097;-72
2023/03/19 04:16:34;;;;;;;26.50;16.35;;;9.60;99.90;;;;;;5082137;28;20602;-73
2023/03/19 04:19:00;;;;;;;23.27;15.48;;;9.60;99.90;;;;;;5082604;28;20374;-73
2023/03/19 04:21:26;;;;;;;25.88;15.00;;;9.60;99.90;;;;;;5081570;28;20043;-73
2023/03/19 04:23:52;;;;;;;23.13;15.13;;;9.60;99.90;;;;;;5082836;28;20047;-70
2023/03/19 04:26:18;;;;;;;25.52;15.10;;;9.60;99.90;;;;;;5081287;28;20092;-70
2023/03/19 04:28:43;;;;;;;24.25;15.55;;;9.60;99.90;;;;;;5082914;28;20040;-71
2023/03/19 04:31:09;;;;;;;26.30;15.50;;;9.60;99.90;;;;;;5082601;28;20024;-72
2023/03/19 04:33:35;;;;;;;25.77;16.58;;;9.60;99.90;;;;;;5082655;28;20024;-71
2023/03/19 04:36:02;;;;;;;23.27;15.60;;;9.60;99.90;;;;;;5082881;28;20051;-71
2023/03/19 04:38:28;;;;;;;25.25;15.68;;;9.60;99.90;;;;;;5082439;28;20024;-72
2023/03/19 04:40:54;;;;;;;27.08;16.40;;;9.60;99.90;;;;;;5081226;28;20047;-70
2023/03/19 04:43:23;;;;;;;28.33;16.48;;;9.60;99.90;;;;;;5081750;28;20178;-72
2023/03/19 04:45:49;;;;;;;28.27;16.13;;;9.60;99.90;;;;;;5080723;28;20020;-72
2023/03/19 04:48:17;;;;;;;23.92;15.68;;;9.60;99.90;;;;;;5081666;28;20100;-72
2023/03/19 04:50:44;;;;;;;23.92;15.27;;;9.60;99.90;;;;;;5082078;28;20116;-70
2023/03/19 04:53:10;;;;;;;26.00;15.65;;;9.70;99.90;;;;;;5082012;28;20024;-73
2023/03/19 04:55:36;;;;;;;25.98;15.70;;;9.70;99.90;;;;;;5082395;28;20055;-72
2023/03/19 04:58:02;;;;;;;30.42;15.95;;;9.70;99.90;;;;;;5082536;28;20633;-71
2023/03/19 05:00:29;;;;;;;24.60;16.02;;;9.70;99.90;;;;;;5080392;28;20044;-72
2023/03/19 05:02:55;;;;;;;27.52;16.20;;;9.70;99.90;;;;;;5082352;28;20033;-70
2023/03/19 05:05:21;;;;;;;25.27;15.35;;;9.70;99.90;;;;;;5082233;28;20378;-72
2023/03/19 05:07:46;;;;;;;26.80;15.95;;;9.70;99.90;;;;;;5080878;28;20047;-71
2023/03/19 05:10:12;;;;;;;23.10;14.95;;;9.70;99.90;;;;;;5080792;28;20082;-72
2023/03/19 05:12:38;;;;;;;24.42;15.65;;;9.70;99.90;;;;;;5082126;28;20031;-73
2023/03/19 05:15:04;;;;;;;26.30;15.48;;;9.70;99.90;;;;;;5082125;28;20099;-70
2023/03/19 05:17:30;;;;;;;26.52;15.65;;;9.70;99.90;;;;;;5081815;28;20024;-70
2023/03/19 05:19:56;;;;;;;28.10;14.98;;;9.70;99.90;;;;;;5081731;28;20028;-71
2023/03/19 05:22:22;;;;;;;25.73;15.35;;;9.70;99.90;;;;;;5081935;28;20052;-71
2023/03/19 05:24:48;;;;;;;30.05;16.40;;;9.70;99.90;;;;;;5081897;28;20035;-72
2023/03/19 05:27:14;;;;;;;27.75;16.85;;;9.70;99.90;;;;;;5080617;28;20107;-73
2023/03/19 05:29:39;;;;;;;25.52;15.60;;;9.70;99.90;;;;;;5081929;28;20024;-72
2023/03/19 05:32:05;;;;;;;30.48;16.45;;;9.60;99.90;;;;;;5080485;28;20111;-70
2023/03/19 05:34:32;;;;;;;28.23;16.63;;;9.60;99.90;;;;;;5081305;28;20017;-71
2023/03/19 05:36:57;;;;;;;28.35;17.05;;;9.60;99.90;;;;;;5081801;28;20016;-73
2023/03/19 05:39:23;;;;;;;26.55;16.50;;;9.60;99.90;;;;;;5081570;28;20096;-72
2023/03/19 05:41:49;;;;;;;30.27;16.60;;;9.50;99.90;;;;;;5081347;28;20036;-72
2023/03/19 05:44:15;;;;;;;30.67;16.88;;;9.60;99.90;;;;;;5081666;28;20085;-71
2023/03/19 05:46:42;;;;;;;27.48;16.65;;;9.60;99.90;;;;;;5081719;28;20020;-71
2023/03/19 05:49:08;;;;;;;31.67;18.55;;;9.50;99.90;;;;;;5080360;28;20044;-72
2023/03/19 05:51:34;;;;;;;29.50;18.17;;;9.60;99.90;;;;;;5081580;28;20051;-72
2023/03/19 05:54:00;;;;;;;32.55;17.90;;;9.60;99.90;;;;;;5081892;28;20020;-71
2023/03/19 05:56:26;;;;;;;27.08;16.65;;;9.60;99.90;;;;;;5081696;28;20017;-73
2023/03/19 05:58:52;;;;;;;31.83;17.90;;;9.60;99.90;;;;;;5081630;28;20853;-72
2023/03/19 06:01:18;;;;;;;27.90;17.58;;;9.60;99.90;;;;;;5085595;28;20052;-72
2023/03/19 06:03:43;;;;;;;28.20;17.30;;;9.60;99.90;;;;;;5085554;28;20047;-73
2023/03/19 06:06:09;;;;;;;29.17;18.13;;;9.60;99.90;;;;;;5084609;28;20096;-71
2023/03/19 06:08:34;;;;;;;28.90;17.55;;;9.60;99.90;;;;;;5084148;28;20024;-73
2023/03/19 06:11:00;;;;;;;26.75;17.33;;;9.60;99.90;;;;;;5084459;28;20112;-71
2023/03/19 06:13:26;;;;;;;31.20;18.88;;;9.60;99.90;;;;;;5085504;28;20054;-72
2023/03/19 06:15:51;;;;;;;30.30;18.55;;;9.50;99.90;;;;;;5083302;28;20024;-71
2023/03/19 06:18:17;;;;;;;31.15;18.42;;;9.60;99.90;;;;;;5083826;28;20053;-71
2023/03/19 06:20:45;;;;;;;38.03;20.60;;;9.50;99.90;;;;;;5085365;28;20033;-69
2023/03/19 06:23:10;;;;;;;34.15;19.67;;;9.60;99.90;;;;;;5084958;28;20036;-71
2023/03/19 06:25:36;;;;;;;31.13;18.85;;;9.60;99.90;;;;;;5081773;28;20035;-72
2023/03/19 06:28:02;;;;;;;31.15;19.75;;;9.60;99.90;;;;;;5082534;28;20062;-72
2023/03/19 06:30:28;;;;;;;36.22;20.10;;;9.70;99.90;;;;;;5085336;28;20024;-70
2023/03/19 06:32:54;;;;;;;34.30;20.40;;;9.80;99.90;;;;;;5084241;28;20044;-70
2023/03/19 06:35:20;;;;;;;37.05;20.25;;;9.80;99.90;;;;;;5085212;28;20021;-69
2023/03/19 06:37:46;;;;;;;36.70;19.63;;;9.80;99.90;;;;;;5084960;28;20458;-69
2023/03/19 06:40:12;;;;;;;33.13;19.85;;;9.90;99.90;;;;;;5084919;28;20024;-70
2023/03/19 06:42:37;;;;;;;29.85;18.90;;;10.00;99.90;;;;;;5083831;28;20052;-71
2023/03/19 06:45:03;;;;;;;34.97;20.50;;;10.00;99.90;;;;;;5082087;28;20385;-70
2023/03/19 06:47:29;;;;;;;32.70;20.10;;;10.10;99.90;;;;;;5084341;28;20043;-69
2023/03/19 06:49:55;;;;;;;28.85;18.05;;;10.10;99.90;;;;;;5084893;28;20031;-71
2023/03/19 06:52:21;;;;;;;30.52;18.83;;;10.20;99.90;;;;;;5083766;28;20062;-72
2023/03/19 06:54:46;;;;;;;29.50;18.38;;;10.30;99.90;;;;;;5082102;28;20028;-71
2023/03/19 06:57:12;;;;;;;29.35;17.60;;;10.40;99.90;;;;;;5084357;28;20040;-72
2023/03/19 06:59:38;;;;;;;26.63;17.05;;;10.40;99.90;;;;;;5081366;28;20054;-71
2023/03/19 07:02:04;;;;;;;28.98;17.45;;;10.50;99.90;;;;;;5082603;28;20067;-72
2023/03/19 07:04:29;;;;;;;31.08;17.10;;;10.50;99.90;;;;;;5082019;28;20028;-72
2023/03/19 07:06:55;;;;;;;27.40;17.02;;;10.60;99.90;;;;;;5081679;28;20036;-71
2023/03/19 07:09:22;;;;;;;28.38;17.85;;;10.60;99.90;;;;;;5083019;28;20036;-70
2023/03/19 07:11:47;;;;;;;29.15;18.88;;;10.60;99.90;;;;;;5083453;28;20131;-71
2023/03/19 07:14:13;;;;;;;30.15;18.25;;;10.70;99.90;;;;;;5083061;28;20462;-71
2023/03/19 07:16:38;;;;;;;31.90;18.75;;;10.80;99.90;;;;;;5080694;28;20041;-72
2023/03/19 07:19:04;;;;;;;27.88;17.98;;;10.90;99.90;;;;;;5083936;28;20032;-71
2023/03/19 07:21:29;;;;;;;28.98;18.05;;;10.90;99.90;;;;;;5084050;28;20021;-73
2023/03/19 07:23:55;;;;;;;25.92;17.90;;;11.00;99.90;;;;;;5081037;28;20033;-70
2023/03/19 07:26:21;;;;;;;24.63;16.60;;;11.10;99.90;;;;;;5083353;28;20052;-72
2023/03/19 07:28:47;;;;;;;30.25;17.30;;;11.10;99.90;;;;;;5082308;28;20033;-71
2023/03/19 07:31:13;;;;;;;28.05;16.58;;;11.10;99.90;;;;;;5083650;28;20073;-70
2023/03/19 07:33:39;;;;;;;28.48;17.08;;;11.10;99.90;;;;;;5081395;28;20028;-71
2023/03/19 07:36:05;;;;;;;27.85;17.15;;;11.20;99.90;;;;;;5081136;28;20025;-71
2023/03/19 07:38:30;;;;;;;27.40;17.45;;;11.20;99.90;;;;;;5083882;28;20030;-72
2023/03/19 07:40:56;;;;;;;25.88;17.05;;;11.30;99.90;;;;;;5083805;28;20432;-71
2023/03/19 07:43:22;;;;;;;30.55;17.20;;;11.40;99.90;;;;;;5082876;28;20433;-71
2023/03/19 07:45:47;;;;;;;27.38;16.95;;;11.50;99.90;;;;;;5081997;28;20104;-70
2023/03/19 07:48:13;;;;;;;25.27;16.75;;;11.50;99.90;;;;;;5083571;28;20067;-71
2023/03/19 07:50:38;;;;;;;27.05;16.10;;;11.50;99.90;;;;;;5082780;28;20028;-71
2023/03/19 07:53:05;;;;;;;26.13;17.33;;;11.50;99.90;;;;;;5079280;28;20035;-71
2023/03/19 07:55:30;;;;;;;27.20;17.08;;;11.60;99.90;;;;;;5083630;28;20610;-72
2023/03/19 07:57:56;;;;;;;29.42;17.75;;;11.60;99.90;;;;;;5083522;28;20034;-69
2023/03/19 08:00:22;;;;;;;31.92;17.08;;;11.60;99.90;;;;;;5083085;28;20059;-71
2023/03/19 08:02:47;;;;;;;25.50;16.80;;;11.70;99.90;;;;;;5080432;28;20043;-72
2023/03/19 08:05:13;;;;;;;25.85;16.52;;;11.70;99.90;;;;;;5083212;28;20024;-70
2023/03/19 08:07:39;;;;;;;28.20;17.23;;;11.80;99.90;;;;;;5083310;28;20048;-70
2023/03/19 08:10:06;;;;;;;24.80;16.15;;;11.70;99.90;;;;;;5082995;28;20078;-72
2023/03/19 08:12:33;;;;;;;25.23;16.40;;;11.80;99.90;;;;;;5082945;28;20020;-72
2023/03/19 08:14:59;;;;;;;27.77;16.83;;;11.90;99.90;;;;;;5082055;28;20048;-70
2023/03/19 08:17:24;;;;;;;25.70;17.88;;;11.90;99.90;;;;;;5078562;28;20024;-71
2023/03/19 08:19:50;;;;;;;27.13;16.75;;;12.00;99.90;;;;;;5081724;28;20021;-70
2023/03/19 08:22:16;;;;;;;27.27;16.40;;;12.00;99.90;;;;;;5081695;28;20060;-71
2023/03/19 08:24:41;;;;;;;24.42;16.70;;;12.00;99.90;;;;;;5081897;28;20037;-71
2023/03/19 08:27:07;;;;;;;26.02;16.05;;;12.10;99.90;;;;;;5081692;28;20029;-73
2023/03/19 08:29:33;;;;;;;26.85;16.40;;;12.20;99.90;;;;;;5082833;28;20469;-69
2023/03/19 08:32:00;;;;;;;24.98;16.42;;;12.10;99.90;;;;;;5081375;28;20028;-72
2023/03/19 08:34:25;;;;;;;22.38;13.63;;;12.20;99.90;;;;;;5081581;28;20039;-72
2023/03/19 08:36:51;;;;;;;24.05;13.70;;;12.30;99.90;;;;;;5081745;28;20033;-72
2023/03/19 08:39:17;;;;;;;24.83;14.90;;;12.30;99.90;;;;;;5080482;28;20029;-71
2023/03/19 08:41:42;;;;;;;24.65;13.90;;;12.40;99.90;;;;;;5082241;28;20528;-69
2023/03/19 08:44:08;;;;;;;21.25;13.48;;;12.40;99.90;;;;;;5079239;28;20074;-72
2023/03/19 08:46:34;;;;;;;21.70;13.60;;;12.50;99.90;;;;;;5080265;28;20064;-70
2023/03/19 08:49:00;;;;;;;20.77;13.30;;;12.50;99.90;;;;;;5078616;28;20032;-71
2023/03/19 08:51:27;;;;;;;23.38;13.07;;;12.60;99.90;;;;;;5081080;28;20502;-71
2023/03/19 08:53:53;;;;;;;20.27;13.13;;;12.70;99.90;;;;;;5079983;28;20075;-69
2023/03/19 08:56:18;;;;;;;23.30;13.43;;;12.80;99.90;;;;;;5079524;28;20032;-69
2023/03/19 08:58:44;;;;;;;23.35;13.70;;;12.80;99.90;;;;;;5076268;28;20028;-70
2023/03/19 09:01:12;;;;;;;20.60;13.02;;;12.90;99.90;;;;;;5081686;28;20031;-70
2023/03/19 09:03:40;;;;;;;21.77;12.95;;;12.90;99.90;;;;;;5077355;28;20048;-70
2023/03/19 09:06:09;;;;;;;18.70;12.85;;;13.00;99.90;;;;;;5078294;28;20032;-70
2023/03/19 09:08:36;;;;;;;19.00;12.98;;;13.00;99.90;;;;;;5078420;28;20043;-71
2023/03/19 09:11:04;;;;;;;22.60;12.30;;;13.00;99.90;;;;;;5079695;28;20577;-69
2023/03/19 09:13:29;;;;;;;19.50;13.02;;;13.00;99.90;;;;;;5076663;28;20034;-71
2023/03/19 09:15:55;;;;;;;21.10;13.02;;;13.00;99.90;;;;;;5078221;28;20052;-72
2023/03/19 09:18:24;;;;;;;17.25;11.60;;;13.00;99.90;;;;;;5081875;28;20037;-70
2023/03/19 09:20:50;;;;;;;19.45;12.68;;;13.10;99.90;;;;;;5079647;28;20039;-70
2023/03/19 09:23:15;;;;;;;18.75;12.00;;;13.00;99.90;;;;;;5079230;28;20401;-70
2023/03/19 09:25:41;;;;;;;20.48;13.25;;;13.00;99.90;;;;;;5081018;28;20028;-70
2023/03/19 09:28:06;;;;;;;19.25;11.95;;;13.00;99.90;;;;;;5077153;28;20108;-72
2023/03/19 09:30:32;;;;;;;21.17;12.65;;;13.00;99.90;;;;;;5078813;28;20033;-73
2023/03/19 09:32:58;;;;;;;21.33;13.27;;;13.00;99.90;;;;;;5081178;28;20021;-71
2023/03/19 09:35:25;;;;;;;20.27;12.40;;;13.10;99.90;;;;;;5080227;28;20039;-71
2023/03/19 09:37:50;;;;;;;21.85;12.75;;;13.20;99.90;;;;;;5081038;28;20028;-70
2023/03/19 09:40:28;;;;;;;18.77;11.88;;;13.30;99.90;;;;;;5078961;28;20420;-72
2023/03/19 09:43:06;;;;;;;19.45;12.88;;;13.50;99.90;;;;;;5079471;28;20125;-71
2023/03/19 09:45:33;;;;;;;21.35;13.07;;;13.50;99.90;;;;;;5079714;28;20060;-72
2023/03/19 09:48:11;;;;;;;20.20;12.90;;;13.50;99.90;;;;;;5079497;28;20038;-71
2023/03/19 09:50:39;;;;;;;23.10;12.57;;;13.50;99.90;;;;;;5075913;28;20020;-72
2023/03/19 09:53:19;;;;;;;20.25;12.25;;;13.50;99.90;;;;;;5077679;28;20029;-75
2023/03/19 09:55:51;;;;;;;19.38;12.45;;;13.50;99.90;;;;;;5079236;28;20059;-71
2023/03/19 09:58:31;;;;;;;19.10;12.75;;;13.40;99.90;;;;;;5081661;28;20017;-70
2023/03/19 10:00:59;;;;;;;21.85;12.73;;;13.50;99.90;;;;;;5081588;28;20017;-71
2023/03/19 10:03:32;;;;;;;23.27;11.77;;;13.50;99.90;;;;;;5079651;28;20040;-72
2023/03/19 10:06:16;;;;;;;22.30;12.93;;;13.50;99.90;;;;;;5080855;28;20029;-70
2023/03/19 10:09:03;;;;;;;21.50;11.98;;;13.40;99.90;;;;;;5077877;28;20054;-71
2023/03/19 10:11:41;;;;;;;18.45;11.50;;;13.50;99.90;;;;;;5080162;28;20045;-72
2023/03/19 10:14:28;;;;;;;20.95;11.63;;;13.60;99.90;;;;;;5078166;28;20032;-70
2023/03/19 10:16:57;;;;;;;24.60;12.50;;;13.60;99.90;;;;;;5075395;28;20033;-70
2023/03/19 10:19:40;;;;;;;22.13;12.50;;;13.60;99.90;;;;;;5079108;28;20104;-69
2023/03/19 10:22:11;;;;;;;26.48;15.13;;;13.70;99.90;;;;;;5080979;28;20028;-70
2023/03/19 10:24:39;;;;;;;19.63;12.32;;;13.80;99.90;;;;;;5080233;28;20052;-73
2023/03/19 10:27:18;;;;;;;20.88;12.20;;;14.00;99.90;;;;;;5079883;28;20442;-70
2023/03/19 10:29:43;;;;;;;21.48;13.45;;;14.10;99.90;;;;;;5079679;28;20047;-71
2023/03/19 10:32:34;;;;;;;21.15;11.77;;;14.30;99.90;;;;;;5078140;28;20024;-73
2023/03/19 10:35:16;;;;;;;21.27;12.38;;;14.60;99.90;;;;;;5078977;28;20031;-70
2023/03/19 10:37:42;;;;;;;22.30;12.73;;;14.80;99.90;;;;;;5080526;28;20032;-71
2023/03/19 10:40:20;;;;;;;18.63;11.55;;;15.00;99.90;;;;;;5080808;28;20048;-72
2023/03/19 10:42:52;;;;;;;19.05;10.88;;;15.20;99.90;;;;;;5079151;28;20052;-71
2023/03/19 10:45:28;;;;;;;22.38;12.10;;;15.40;99.90;;;;;;5080193;28;20096;-72
2023/03/19 10:47:59;;;;;;;18.40;11.05;;;15.50;99.90;;;;;;5084711;28;20989;-70
2023/03/19 10:50:49;;;;;;;21.95;11.75;;;15.60;99.90;;;;;;5084210;28;20036;-69
2023/03/19 10:53:15;;;;;;;16.20;10.90;;;15.60;99.90;;;;;;5084103;28;20495;-69
2023/03/19 10:55:48;;;;;;;20.40;11.15;;;15.60;99.90;;;;;;5083529;28;20072;-70
2023/03/19 10:58:17;;;;;;;19.02;11.00;;;15.50;99.90;;;;;;5084476;28;20021;-70
2023/03/19 11:00:55;;;;;;;16.83;10.13;;;15.40;99.90;;;;;;5082695;28;20024;-70
2023/03/19 11:03:57;;;;;;;18.85;10.38;;;15.30;99.90;;;;;;5084248;28;20049;-69
2023/03/19 11:06:34;;;;;;;16.48;10.63;;;15.20;99.90;;;;;;5090698;28;20037;-69
2023/03/19 11:09:12;;;;;;;20.38;10.60;;;15.00;99.90;;;;;;5084396;28;20119;-70
2023/03/19 11:11:52;;;;;;;21.05;12.60;;;14.80;99.90;;;;;;5083739;28;20020;-69
2023/03/19 11:14:42;;;;;;;18.83;11.50;;;14.80;99.90;;;;;;5083014;28;20039;-71
2023/03/19 11:17:22;;;;;;;19.80;11.52;;;14.70;99.90;;;;;;5084103;28;20044;-71
2023/03/19 11:19:54;;;;;;;23.10;11.52;;;14.60;99.90;;;;;;5082708;28;20024;-71
2023/03/19 11:22:23;;;;;;;20.75;11.80;;;14.60;99.90;;;;;;5083870;28;20040;-70
2023/03/19 11:24:55;;;;;;;19.88;11.02;;;14.50;99.90;;;;;;5081799;28;20500;-69
2023/03/19 11:27:34;;;;;;;20.45;11.30;;;14.50;99.90;;;;;;5082602;28;20039;-69
2023/03/19 11:30:02;;;;;;;17.23;11.70;;;14.50;99.90;;;;;;5083112;28;20058;-70
2023/03/19 11:33:02;;;;;;;17.63;11.63;;;14.40;99.90;;;;;;5083909;28;20024;-70
2023/03/19 11:35:37;;;;;;;17.38;11.25;;;14.40;99.90;;;;;;5083434;28;20016;-70
2023/03/19 11:38:03;;;;;;;24.15;13.70;;;14.40;99.90;;;;;;5079613;28;20021;-69
2023/03/19 11:40:44;;;;;;;24.15;13.50;;;14.40;99.90;;;;;;5078091;28;20047;-70
2023/03/19 11:43:31;;;;;;;21.88;13.23;;;14.40;99.90;;;;;;5081781;28;20053;-69
2023/03/19 11:46:17;;;;;;;21.33;14.18;;;14.40;99.90;;;;;;5082598;28;20063;-69
2023/03/19 11:49:04;;;;;;;21.88;15.18;;;14.40;99.90;;;;;;5083048;28;20092;-70
2023/03/19 11:51:58;;;;;;;22.52;15.73;;;14.40;99.90;;;;;;5083387;28;20047;-72
2023/03/19 11:54:36;;;;;;;24.30;16.80;;;14.30;99.90;;;;;;5081550;28;20115;-69
2023/03/19 11:57:16;;;;;;;26.00;16.77;;;14.30;99.90;;;;;;5082130;28;20279;-70
2023/03/19 12:00:03;;;;;;;24.98;17.13;;;14.40;99.90;;;;;;5082479;28;20059;-70
2023/03/19 12:02:48;;;;;;;30.05;17.92;;;14.40;99.90;;;;;;5083285;28;20394;-71
2023/03/19 12:05:22;;;;;;;28.30;19.52;;;14.30;99.90;;;;;;5080119;28;20067;-71
2023/03/19 12:08:03;;;;;;;28.30;18.20;;;14.30;99.90;;;;;;5081363;28;20078;-70
2023/03/19 12:10:56;;;;;;;28.88;16.80;;;14.20;99.90;;;;;;5082684;28;20029;-71
2023/03/19 12:13:39;;;;;;;28.15;18.50;;;14.20;99.90;;;;;;5082364;28;20024;-70
2023/03/19 12:16:36;;;;;;;27.35;18.02;;;14.20;99.90;;;;;;5082851;28;20477;-70
2023/03/19 12:19:41;;;;;;;27.63;17.63;;;14.20;99.90;;;;;;5082678;28;20025;-70
2023/03/19 12:22:13;;;;;;;35.13;19.45;;;14.10;99.90;;;;;;5081674;28;20028;-70
2023/03/19 12:24:41;;;;;;;30.25;19.73;;;14.00;99.90;;;;;;5082772;28;20024;-72
2023/03/19 12:27:33;;;;;;;33.15;20.50;;;14.00;99.90;;;;;;5082865;28;20031;-71
2023/03/19 12:30:24;;;;;;;36.20;22.85;;;13.90;99.90;;;;;;5081490;28;20036;-72
2023/03/19 12:33:18;;;;;;;82.22;37.47;;;13.80;99.90;;;;;;5082726;28;20032;-71
2023/03/19 12:35:48;;;;;;;42.28;25.08;;;13.70;99.90;;;;;;5081166;28;20025;-71
2023/03/19 12:38:35;;;;;;;36.35;22.83;;;13.60;99.90;;;;;;5079638;28;20474;-72
2023/03/19 12:41:13;;;;;;;38.80;22.38;;;13.50;99.90;;;;;;5081535;28;20033;-70